Wall Lake, Iowa
Current Conditions -  °F | °C
As of 9:55 PM on Sunday 23 Nov 2014 (Local Time) from KCIN Reporting Station
Broken Clouds Broken Clouds  
Wind Chill: 21°   Ceiling: 11000
Heat Index: 34°   Visibility: 10mi
Dew Point: 28°   Wind: 24mph
Humidity: 81%   Direction: 320°NW
Pressure: 29.45"   Gusts: 35mph
Location:  42.27°N, 95.09°W
Report Text: KCIN 240355Z AUTO 32021G30KT 10SM FEW026 SCT037 BKN110 01/M02 A2945 RMK AO2
Loading
Personal Weather Stations






























Interactive Weather Map New forecast layout! Learn more

10-Day Weather Forecast

Advertisements
Track Severe Weather on mobile